createdAt,value
2024-05-09T00:00:00.515Z,960.42
2024-05-09T00:01:00.508Z,960.44
2024-05-09T00:02:00.426Z,960.44
2024-05-09T00:03:00.415Z,960.41
2024-05-09T00:04:00.513Z,960.43
2024-05-09T00:05:00.457Z,960.40
2024-05-09T00:06:00.608Z,960.43
2024-05-09T00:07:00.365Z,960.37
2024-05-09T00:08:00.325Z,960.37
2024-05-09T00:09:00.336Z,960.36
2024-05-09T00:10:00.288Z,960.36
2024-05-09T00:11:00.344Z,960.37
2024-05-09T00:12:00.579Z,960.37
2024-05-09T00:13:00.250Z,960.34
2024-05-09T00:14:00.300Z,960.32
2024-05-09T00:15:00.295Z,960.32
2024-05-09T00:16:00.206Z,960.31
2024-05-09T00:17:00.249Z,960.33
2024-05-09T00:18:00.696Z,960.32
2024-05-09T00:19:00.384Z,960.31
2024-05-09T00:20:00.278Z,960.30
2024-05-09T00:21:00.312Z,960.31
2024-05-09T00:22:00.246Z,960.25
2024-05-09T00:23:00.168Z,960.26
2024-05-09T00:24:00.135Z,960.28
2024-05-09T00:25:00.185Z,960.27
2024-05-09T00:26:00.135Z,960.24
2024-05-09T00:27:00.116Z,960.21
2024-05-09T00:28:00.079Z,960.26
2024-05-09T00:29:00.093Z,960.20
2024-05-09T00:30:00.085Z,960.21
2024-05-09T00:31:00.070Z,960.18
2024-05-09T00:32:00.200Z,960.18
2024-05-09T00:33:00.194Z,960.18
2024-05-09T00:34:00.135Z,960.15
2024-05-09T00:35:00.020Z,960.16
2024-05-09T00:35:59.924Z,960.13
2024-05-09T00:36:59.962Z,960.10
2024-05-09T00:38:00.124Z,960.07
2024-05-09T00:38:59.889Z,960.12
2024-05-09T00:39:59.871Z,960.11
2024-05-09T00:40:59.889Z,960.13
2024-05-09T00:41:59.839Z,960.08
2024-05-09T00:42:59.898Z,960.16
2024-05-09T00:43:59.874Z,960.14
2024-05-09T00:44:59.818Z,960.10
2024-05-09T00:46:00.043Z,960.13
2024-05-09T00:46:59.827Z,960.15
2024-05-09T00:47:59.901Z,960.11
2024-05-09T00:48:59.849Z,960.07
2024-05-09T00:49:59.783Z,960.11
2024-05-09T00:50:59.779Z,960.13
2024-05-09T00:51:59.702Z,960.12
2024-05-09T00:52:59.764Z,960.10
2024-05-09T00:53:59.713Z,960.08
2024-05-09T00:54:59.714Z,960.10
2024-05-09T00:55:59.813Z,960.05
2024-05-09T00:56:59.651Z,960.09
2024-05-09T00:57:59.625Z,960.06
2024-05-09T00:58:59.707Z,960.05
2024-05-09T00:59:59.616Z,960.02
2024-05-09T01:00:59.758Z,960.05
2024-05-09T01:01:59.681Z,960.02
2024-05-09T01:02:59.707Z,960.03
2024-05-09T01:03:59.722Z,960.02
2024-05-09T01:04:59.712Z,960.05
2024-05-09T01:05:59.563Z,960.02
2024-05-09T01:06:59.640Z,960.05
2024-05-09T01:07:59.546Z,960.00
2024-05-09T01:08:59.483Z,960.05
2024-05-09T01:09:59.513Z,960.02
2024-05-09T01:10:59.568Z,960.04
2024-05-09T01:11:59.564Z,960.04
2024-05-09T01:12:59.420Z,960.02
2024-05-09T01:13:59.430Z,960.06
2024-05-09T01:14:59.407Z,960.08
2024-05-09T01:15:59.452Z,960.12
2024-05-09T01:16:59.397Z,960.06
2024-05-09T01:17:59.659Z,960.09
2024-05-09T01:18:59.399Z,960.09
2024-05-09T01:19:59.392Z,960.08
2024-05-09T01:20:59.395Z,960.08
2024-05-09T01:21:59.335Z,960.09
2024-05-09T01:22:59.419Z,960.07
2024-05-09T01:23:59.281Z,960.08
2024-05-09T01:24:59.279Z,960.08
2024-05-09T01:25:59.271Z,960.07
2024-05-09T01:26:59.278Z,960.04
2024-05-09T01:28:20.227Z,960.01
2024-05-09T01:28:59.274Z,960.04
2024-05-09T01:29:59.198Z,960.05
2024-05-09T01:30:59.174Z,960.04
2024-05-09T01:31:59.421Z,960.01
2024-05-09T01:32:59.407Z,960.01
2024-05-09T01:33:59.303Z,960.05
2024-05-09T01:34:59.143Z,960.06
2024-05-09T01:35:59.130Z,960.06
2024-05-09T01:36:59.159Z,960.07
2024-05-09T01:37:59.182Z,960.05
2024-05-09T01:38:59.054Z,960.05
2024-05-09T01:39:59.061Z,960.02
2024-05-09T01:40:59.259Z,960.06
2024-05-09T01:41:59.023Z,960.02
2024-05-09T01:42:59.020Z,960.04
2024-05-09T01:43:59.054Z,960.02
2024-05-09T01:44:58.979Z,960.04
2024-05-09T01:45:58.966Z,960.04
2024-05-09T01:46:59.003Z,960.02
2024-05-09T01:47:59.302Z,959.99
2024-05-09T01:48:59.126Z,959.98
2024-05-09T01:49:59.006Z,959.97
2024-05-09T01:50:58.962Z,959.97
2024-05-09T01:51:58.892Z,959.95
2024-05-09T01:52:58.896Z,959.94
2024-05-09T01:53:58.856Z,959.92
2024-05-09T01:55:00.771Z,959.95
2024-05-09T01:55:59.027Z,959.91
2024-05-09T01:56:58.811Z,959.94
2024-05-09T01:57:58.930Z,959.89
2024-05-09T01:58:58.852Z,959.92
2024-05-09T01:59:58.836Z,959.94
2024-05-09T02:00:58.773Z,959.93
2024-05-09T02:01:59.015Z,959.91
2024-05-09T02:02:58.903Z,959.95
2024-05-09T02:03:59.062Z,959.95
2024-05-09T02:04:58.906Z,959.91
2024-05-09T02:05:58.702Z,959.93
2024-05-09T02:06:58.675Z,959.97
2024-05-09T02:07:58.695Z,959.94
2024-05-09T02:08:58.674Z,960.01
2024-05-09T02:09:58.691Z,959.98
2024-05-09T02:10:58.768Z,959.97
2024-05-09T02:11:58.791Z,959.95
2024-05-09T02:12:58.609Z,959.99
2024-05-09T02:13:58.630Z,959.97
2024-05-09T02:14:58.560Z,959.96
2024-05-09T02:15:58.564Z,960.02
2024-05-09T02:16:58.651Z,959.97
2024-05-09T02:17:58.656Z,960.04
2024-05-09T02:18:58.574Z,960.00
2024-05-09T02:19:58.541Z,960.01
2024-05-09T02:20:58.582Z,960.00
2024-05-09T02:21:58.483Z,960.00
2024-05-09T02:22:58.464Z,960.00
2024-05-09T02:23:58.445Z,960.01
2024-05-09T02:24:58.428Z,959.98
2024-05-09T02:25:58.492Z,959.99
2024-05-09T02:26:58.450Z,960.00
2024-05-09T02:27:58.417Z,959.94
2024-05-09T02:28:58.425Z,959.95
2024-05-09T02:29:58.449Z,959.95
2024-05-09T02:30:58.453Z,959.95
2024-05-09T02:31:58.371Z,959.98
2024-05-09T02:32:58.537Z,959.92
2024-05-09T02:33:58.506Z,959.94
2024-05-09T02:34:58.315Z,959.90
2024-05-09T02:35:58.317Z,959.92
2024-05-09T02:36:58.260Z,959.92
2024-05-09T02:37:58.300Z,959.92
2024-05-09T02:38:58.323Z,959.90
2024-05-09T02:39:58.239Z,959.92
2024-05-09T02:40:58.245Z,959.91
2024-05-09T02:41:58.187Z,959.89
2024-05-09T02:42:58.174Z,959.91
2024-05-09T02:43:58.267Z,959.91
2024-05-09T02:44:58.247Z,959.90
2024-05-09T02:45:58.147Z,959.92
2024-05-09T02:46:58.148Z,959.94
2024-05-09T02:47:58.754Z,959.92
2024-05-09T02:48:58.278Z,959.90
2024-05-09T02:49:58.110Z,959.92
2024-05-09T02:50:58.128Z,959.91
2024-05-09T02:51:58.062Z,959.92
2024-05-09T02:52:58.145Z,959.87
2024-05-09T02:53:58.037Z,959.89
2024-05-09T02:54:58.026Z,959.84
2024-05-09T02:55:58.055Z,959.82
2024-05-09T02:56:58.027Z,959.83
2024-05-09T02:57:57.981Z,959.88
2024-05-09T02:58:58.070Z,959.88
2024-05-09T02:59:57.955Z,959.88
2024-05-09T03:00:58.062Z,959.88
2024-05-09T03:01:58.057Z,959.88
2024-05-09T03:02:58.084Z,959.87
2024-05-09T03:03:58.024Z,959.86
2024-05-09T03:04:58.130Z,959.84
2024-05-09T03:05:57.913Z,959.84
2024-05-09T03:06:57.869Z,959.85
2024-05-09T03:07:57.847Z,959.87
2024-05-09T03:08:57.926Z,959.86
2024-05-09T03:09:57.822Z,959.88
2024-05-09T03:10:57.890Z,959.87
2024-05-09T03:11:57.922Z,959.83
2024-05-09T03:12:57.758Z,959.86
2024-05-09T03:13:57.810Z,959.83
2024-05-09T03:14:57.734Z,959.83
2024-05-09T03:15:57.802Z,959.85
2024-05-09T03:16:57.736Z,959.86
2024-05-09T03:17:57.845Z,959.88
2024-05-09T03:18:57.742Z,959.90
2024-05-09T03:19:57.699Z,959.88
2024-05-09T03:20:57.713Z,959.86
2024-05-09T03:21:57.683Z,959.89
2024-05-09T03:22:57.698Z,959.90
2024-05-09T03:23:57.690Z,959.91
2024-05-09T03:24:57.610Z,959.93
2024-05-09T03:25:57.613Z,959.92
2024-05-09T03:26:57.580Z,959.91
2024-05-09T03:27:57.622Z,959.90
2024-05-09T03:28:57.651Z,959.92
2024-05-09T03:29:57.534Z,959.95
2024-05-09T03:30:57.545Z,959.97
2024-05-09T03:31:57.581Z,959.94
2024-05-09T03:32:57.721Z,959.93
2024-05-09T03:33:57.621Z,959.92
2024-05-09T03:34:57.526Z,959.93
2024-05-09T03:35:57.455Z,959.93
2024-05-09T03:36:57.481Z,959.92
2024-05-09T03:37:57.503Z,959.90
2024-05-09T03:38:57.456Z,959.91
2024-05-09T03:39:57.399Z,959.89
2024-05-09T03:40:57.443Z,959.89
2024-05-09T03:41:57.447Z,959.88
2024-05-09T03:42:57.358Z,959.87
2024-05-09T03:43:57.420Z,959.83
2024-05-09T03:44:57.321Z,959.90
2024-05-09T03:45:57.441Z,959.86
2024-05-09T03:46:57.434Z,959.88
2024-05-09T03:47:57.607Z,959.88
2024-05-09T03:48:57.376Z,959.85
2024-05-09T03:49:57.361Z,959.85
2024-05-09T03:50:57.258Z,959.82
2024-05-09T03:51:57.240Z,959.86
2024-05-09T03:52:57.258Z,959.89
2024-05-09T03:53:57.210Z,959.85
2024-05-09T03:54:57.221Z,959.84
2024-05-09T03:55:57.311Z,959.87
2024-05-09T03:56:57.171Z,959.88
2024-05-09T03:57:57.194Z,959.90
2024-05-09T03:58:57.158Z,959.93
2024-05-09T03:59:57.216Z,959.93
2024-05-09T04:00:57.232Z,959.93
2024-05-09T04:01:57.176Z,959.94
2024-05-09T04:02:57.187Z,959.95
2024-05-09T04:03:57.168Z,959.94
2024-05-09T04:04:57.139Z,959.96
2024-05-09T04:05:57.065Z,959.99
2024-05-09T04:06:57.027Z,959.99
2024-05-09T04:07:57.197Z,959.99
2024-05-09T04:08:56.995Z,959.98
2024-05-09T04:09:56.974Z,959.96
2024-05-09T04:10:57.092Z,959.97
2024-05-09T04:11:57.113Z,960.06
2024-05-09T04:12:56.939Z,960.04
2024-05-09T04:13:56.970Z,960.03
2024-05-09T04:14:56.929Z,960.00
2024-05-09T04:15:56.945Z,960.00
2024-05-09T04:16:56.987Z,960.03
2024-05-09T04:17:57.131Z,960.06
2024-05-09T04:18:56.944Z,960.00
2024-05-09T04:19:56.889Z,960.06
2024-05-09T04:20:56.945Z,960.03
2024-05-09T04:21:57.420Z,960.05
2024-05-09T04:22:56.867Z,960.01
2024-05-09T04:23:56.796Z,960.03
2024-05-09T04:24:56.882Z,960.07
2024-05-09T04:25:57.418Z,960.04
2024-05-09T04:26:56.771Z,960.11
2024-05-09T04:27:56.776Z,960.10
2024-05-09T04:28:56.787Z,960.09
2024-05-09T04:29:56.713Z,960.10
2024-05-09T04:30:56.740Z,960.12
2024-05-09T04:31:56.747Z,960.13
2024-05-09T04:32:56.767Z,960.15
2024-05-09T04:33:56.825Z,960.13
2024-05-09T04:34:56.703Z,960.17
2024-05-09T04:35:56.643Z,960.13
2024-05-09T04:36:56.661Z,960.17
2024-05-09T04:37:56.603Z,960.21
2024-05-09T04:38:56.584Z,960.17
2024-05-09T04:39:56.572Z,960.15
2024-05-09T04:40:56.634Z,960.15
2024-05-09T04:41:56.582Z,960.16
2024-05-09T04:42:56.645Z,960.16
2024-05-09T04:43:56.613Z,960.16
2024-05-09T04:44:58.715Z,960.17
2024-05-09T04:45:56.544Z,960.17
2024-05-09T04:46:56.571Z,960.16
2024-05-09T04:47:56.759Z,960.17
2024-05-09T04:48:56.506Z,960.21
2024-05-09T04:49:56.480Z,960.18
2024-05-09T04:50:56.454Z,960.22
2024-05-09T04:51:56.486Z,960.22
2024-05-09T04:52:56.441Z,960.21
2024-05-09T04:53:56.414Z,960.19
2024-05-09T04:54:58.498Z,960.18
2024-05-09T04:55:56.408Z,960.19
2024-05-09T04:56:56.353Z,960.18
2024-05-09T04:57:56.379Z,960.21
2024-05-09T04:58:56.452Z,960.24
2024-05-09T04:59:56.324Z,960.19
2024-05-09T05:00:56.362Z,960.24
2024-05-09T05:01:56.384Z,960.24
2024-05-09T05:02:56.395Z,960.24
2024-05-09T05:03:56.496Z,960.21
2024-05-09T05:04:56.371Z,960.21
2024-05-09T05:05:56.381Z,960.17
2024-05-09T05:06:58.385Z,960.17
2024-05-09T05:07:56.259Z,960.19
2024-05-09T05:08:56.179Z,960.16
2024-05-09T05:09:56.170Z,960.13
2024-05-09T05:10:56.267Z,960.19
2024-05-09T05:11:56.276Z,960.15
2024-05-09T05:12:56.162Z,960.17
2024-05-09T05:13:56.150Z,960.15
2024-05-09T05:14:56.091Z,960.19
2024-05-09T05:15:57.696Z,960.22
2024-05-09T05:16:56.091Z,960.18
2024-05-09T05:17:56.217Z,960.20
2024-05-09T05:18:56.207Z,960.22
2024-05-09T05:19:56.193Z,960.21
2024-05-09T05:20:56.341Z,960.26
2024-05-09T05:21:56.040Z,960.26
2024-05-09T05:22:56.080Z,960.28
2024-05-09T05:23:56.011Z,960.27
2024-05-09T05:24:55.971Z,960.27
2024-05-09T05:25:56.116Z,960.29
2024-05-09T05:26:55.932Z,960.27
2024-05-09T05:27:55.929Z,960.29
2024-05-09T05:28:55.943Z,960.30
2024-05-09T05:29:55.970Z,960.33
2024-05-09T05:30:55.883Z,960.33
2024-05-09T05:31:55.925Z,960.32
2024-05-09T05:32:56.118Z,960.33
2024-05-09T05:33:55.985Z,960.31
2024-05-09T05:34:55.861Z,960.31
2024-05-09T05:35:55.832Z,960.31
2024-05-09T05:36:55.801Z,960.32
2024-05-09T05:37:55.876Z,960.30
2024-05-09T05:38:55.841Z,960.28
2024-05-09T05:39:55.775Z,960.28
2024-05-09T05:40:55.963Z,960.32
2024-05-09T05:41:55.734Z,960.32
2024-05-09T05:42:55.734Z,960.29
2024-05-09T05:43:55.717Z,960.32
2024-05-09T05:44:55.687Z,960.30
2024-05-09T05:45:55.727Z,960.31
2024-05-09T05:46:55.683Z,960.36
2024-05-09T05:47:55.971Z,960.33
2024-05-09T05:48:55.731Z,960.36
2024-05-09T05:49:55.639Z,960.34
2024-05-09T05:50:55.754Z,960.39
2024-05-09T05:51:55.591Z,960.34
2024-05-09T05:52:55.608Z,960.38
2024-05-09T05:53:55.559Z,960.39
2024-05-09T05:54:55.549Z,960.36
2024-05-09T05:55:55.685Z,960.41
2024-05-09T05:56:55.565Z,960.40
2024-05-09T05:57:55.523Z,960.41
2024-05-09T05:58:55.543Z,960.40
2024-05-09T05:59:55.491Z,960.44
2024-05-09T06:00:55.552Z,960.46
2024-05-09T06:01:55.596Z,960.45
2024-05-09T06:02:55.663Z,960.46
2024-05-09T06:03:55.545Z,960.50
2024-05-09T06:04:55.523Z,960.48
2024-05-09T06:05:55.478Z,960.45
2024-05-09T06:06:55.457Z,960.48
2024-05-09T06:07:55.466Z,960.48
2024-05-09T06:08:55.410Z,960.44
2024-05-09T06:09:55.357Z,960.44
2024-05-09T06:10:55.434Z,960.49
2024-05-09T06:11:55.386Z,960.43
2024-05-09T06:12:55.342Z,960.45
2024-05-09T06:13:55.349Z,960.44
2024-05-09T06:14:55.289Z,960.45
2024-05-09T06:15:55.292Z,960.46
2024-05-09T06:16:58.145Z,960.43
2024-05-09T06:17:55.387Z,960.49
2024-05-09T06:18:55.418Z,960.49
2024-05-09T06:19:55.283Z,960.47
2024-05-09T06:20:55.272Z,960.48
2024-05-09T06:21:55.206Z,960.48
2024-05-09T06:22:55.294Z,960.52
2024-05-09T06:23:55.195Z,960.53
2024-05-09T06:24:55.151Z,960.53
2024-05-09T06:25:55.218Z,960.53
2024-05-09T06:26:55.135Z,960.56
2024-05-09T06:27:55.160Z,960.53
2024-05-09T06:28:55.131Z,960.54
2024-05-09T06:29:55.097Z,960.56
2024-05-09T06:30:55.079Z,960.51
2024-05-09T06:31:57.183Z,960.60
2024-05-09T06:32:55.244Z,960.55
2024-05-09T06:33:55.294Z,960.54
2024-05-09T06:34:55.077Z,960.58
2024-05-09T06:35:55.004Z,960.56
2024-05-09T06:36:55.004Z,960.54
2024-05-09T06:37:55.001Z,960.53
2024-05-09T06:38:54.986Z,960.51
2024-05-09T06:39:54.937Z,960.48
2024-05-09T06:40:54.967Z,960.49
2024-05-09T06:41:54.928Z,960.48
2024-05-09T06:42:54.899Z,960.51
2024-05-09T06:43:54.951Z,960.50
2024-05-09T06:44:54.887Z,960.54
2024-05-09T06:45:54.862Z,960.50
2024-05-09T06:46:58.097Z,960.54
2024-05-09T06:47:54.969Z,960.54
2024-05-09T06:48:55.021Z,960.52
2024-05-09T06:49:54.863Z,960.56
2024-05-09T06:50:54.852Z,960.51
2024-05-09T06:51:54.768Z,960.53
2024-05-09T06:52:54.788Z,960.57
2024-05-09T06:53:54.817Z,960.57
2024-05-09T06:54:54.728Z,960.58
2024-05-09T06:55:54.791Z,960.58
2024-05-09T06:56:54.710Z,960.58
2024-05-09T06:57:54.688Z,960.59
2024-05-09T06:58:54.706Z,960.58
2024-05-09T06:59:54.660Z,960.58
2024-05-09T07:00:54.704Z,960.56
2024-05-09T07:01:54.720Z,960.55
2024-05-09T07:02:54.788Z,960.56
2024-05-09T07:03:54.700Z,960.54
2024-05-09T07:04:54.773Z,960.56
2024-05-09T07:05:54.606Z,960.58
2024-05-09T07:06:54.632Z,960.57
2024-05-09T07:07:54.592Z,960.57
2024-05-09T07:08:54.644Z,960.54
2024-05-09T07:09:54.520Z,960.60
2024-05-09T07:10:54.639Z,960.54
2024-05-09T07:11:54.564Z,960.56
2024-05-09T07:12:54.482Z,960.58
2024-05-09T07:13:54.540Z,960.54
2024-05-09T07:14:54.486Z,960.58
2024-05-09T07:15:54.477Z,960.58
2024-05-09T07:16:54.504Z,960.61
2024-05-09T07:17:54.543Z,960.62
2024-05-09T07:18:54.738Z,960.58
2024-05-09T07:19:54.409Z,960.60
2024-05-09T07:20:54.979Z,960.60
2024-05-09T07:21:54.363Z,960.61
2024-05-09T07:22:54.434Z,960.61
2024-05-09T07:23:54.429Z,960.67
2024-05-09T07:24:54.436Z,960.63
2024-05-09T07:25:54.479Z,960.67
2024-05-09T07:26:54.344Z,960.63
2024-05-09T07:27:54.294Z,960.62
2024-05-09T07:28:54.301Z,960.62
2024-05-09T07:29:54.266Z,960.66
2024-05-09T07:30:54.243Z,960.64
2024-05-09T07:31:54.378Z,960.64
2024-05-09T07:32:54.380Z,960.64
2024-05-09T07:33:54.267Z,960.61
2024-05-09T07:34:54.287Z,960.61
2024-05-09T07:35:54.212Z,960.63
2024-05-09T07:36:54.157Z,960.60
2024-05-09T07:37:54.250Z,960.63
2024-05-09T07:38:54.135Z,960.64
2024-05-09T07:39:54.129Z,960.61
2024-05-09T07:40:54.202Z,960.65
2024-05-09T07:41:54.147Z,960.63
2024-05-09T07:42:54.122Z,960.63
2024-05-09T07:43:54.120Z,960.59
2024-05-09T07:44:55.500Z,960.63
2024-05-09T07:45:56.105Z,960.65
2024-05-09T07:48:13.746Z,960.61
2024-05-09T07:51:32.667Z,960.63
2024-05-09T07:53:37.345Z,960.62
2024-05-09T07:53:51.384Z,960.60
2024-05-09T07:54:24.108Z,960.57
2024-05-09T07:55:24.165Z,960.60
2024-05-09T07:56:24.855Z,960.59
2024-05-09T07:57:23.948Z,960.58
2024-05-09T07:58:23.893Z,960.54
2024-05-09T07:59:23.926Z,960.52
2024-05-09T08:00:30.894Z,960.54
2024-05-09T08:01:23.949Z,960.56
2024-05-09T08:02:23.988Z,960.55
2024-05-09T08:03:24.256Z,960.52
2024-05-09T08:04:26.580Z,960.50
2024-05-09T08:05:23.872Z,960.51
2024-05-09T08:06:23.774Z,960.48
2024-05-09T08:07:23.867Z,960.47
2024-05-09T08:08:23.829Z,960.45
2024-05-09T08:09:23.745Z,960.46
2024-05-09T08:10:28.551Z,960.45
2024-05-09T08:11:23.979Z,960.46
2024-05-09T08:12:23.732Z,960.44
2024-05-09T08:13:23.753Z,960.40
2024-05-09T08:14:23.655Z,960.43
2024-05-09T08:15:23.712Z,960.40
2024-05-09T08:16:23.974Z,960.41
2024-05-09T08:17:23.751Z,960.39
2024-05-09T08:18:23.762Z,960.39
2024-05-09T08:19:23.623Z,960.40
2024-05-09T08:20:30.953Z,960.41
2024-05-09T08:21:23.622Z,960.39
2024-05-09T08:22:23.554Z,960.38
2024-05-09T08:23:23.568Z,960.41
2024-05-09T08:24:23.580Z,960.42
2024-05-09T08:25:23.579Z,960.41
2024-05-09T08:26:23.535Z,960.42
2024-05-09T08:27:23.514Z,960.40
2024-05-09T08:28:23.625Z,960.41
2024-05-09T08:29:23.460Z,960.41
2024-05-09T08:30:30.113Z,960.41
2024-05-09T08:31:23.560Z,960.39
2024-05-09T08:32:23.579Z,960.40
2024-05-09T08:33:23.513Z,960.42
2024-05-09T08:34:23.498Z,960.42
2024-05-09T08:35:23.398Z,960.41
2024-05-09T08:36:23.357Z,960.41
2024-05-09T08:37:26.220Z,960.41
2024-05-09T08:38:23.370Z,960.34
2024-05-09T08:39:23.369Z,960.43
2024-05-09T08:40:30.743Z,960.41
2024-05-09T08:41:23.301Z,960.40
2024-05-09T08:42:23.394Z,960.36
2024-05-09T08:43:23.583Z,960.39
2024-05-09T08:44:23.253Z,960.34
2024-05-09T08:45:23.242Z,960.35
2024-05-09T08:46:23.361Z,960.34
2024-05-09T08:47:23.287Z,960.35
2024-05-09T08:48:23.544Z,960.35
2024-05-09T08:49:23.297Z,960.34
2024-05-09T08:50:32.045Z,960.32
2024-05-09T08:51:23.180Z,960.33
2024-05-09T08:52:23.176Z,960.29
2024-05-09T08:53:23.149Z,960.31
2024-05-09T08:54:23.119Z,960.31
2024-05-09T08:55:23.137Z,960.32
2024-05-09T08:56:23.104Z,960.27
2024-05-09T08:57:23.121Z,960.26
2024-05-09T08:58:23.143Z,960.28
2024-05-09T08:59:23.048Z,960.29
2024-05-09T09:00:33.418Z,960.27
2024-05-09T09:01:23.149Z,960.30
2024-05-09T09:02:23.256Z,960.30
2024-05-09T09:03:23.042Z,960.28
2024-05-09T09:04:23.215Z,960.28
2024-05-09T09:05:23.178Z,960.29
2024-05-09T09:06:22.949Z,960.29
2024-05-09T09:07:23.143Z,960.30
2024-05-09T09:08:22.962Z,960.27
2024-05-09T09:09:22.937Z,960.27
2024-05-09T09:10:29.705Z,960.28
2024-05-09T09:11:23.009Z,960.26
2024-05-09T09:12:22.890Z,960.24
2024-05-09T09:13:22.915Z,960.26
2024-05-09T09:14:22.868Z,960.23
2024-05-09T09:15:22.851Z,960.21
2024-05-09T09:16:23.085Z,960.20
2024-05-09T09:17:23.056Z,960.22
2024-05-09T09:18:22.887Z,960.22
2024-05-09T09:19:22.989Z,960.21
2024-05-09T09:20:28.633Z,960.23
2024-05-09T09:21:22.830Z,960.20
2024-05-09T09:22:22.762Z,960.17
2024-05-09T09:23:22.771Z,960.21
2024-05-09T09:24:22.748Z,960.17
2024-05-09T09:25:22.726Z,960.18
2024-05-09T09:26:22.695Z,960.15
2024-05-09T09:27:22.798Z,960.21
2024-05-09T09:28:22.780Z,960.21
2024-05-09T09:29:22.724Z,960.19
2024-05-09T09:30:34.027Z,960.18
2024-05-09T09:31:22.651Z,960.21
2024-05-09T09:32:22.661Z,960.19
2024-05-09T09:33:22.758Z,960.21
2024-05-09T09:34:22.767Z,960.21
2024-05-09T09:35:22.647Z,960.20
2024-05-09T09:36:22.550Z,960.21
2024-05-09T09:37:22.549Z,960.19
2024-05-09T09:38:22.628Z,960.18
2024-05-09T09:39:22.533Z,960.20
2024-05-09T09:40:29.046Z,960.16
2024-05-09T09:41:22.510Z,960.17
2024-05-09T09:42:22.492Z,960.15
2024-05-09T09:43:23.020Z,960.14
2024-05-09T09:44:22.437Z,960.15
2024-05-09T09:45:22.473Z,960.12
2024-05-09T09:46:22.440Z,960.10
2024-05-09T09:47:22.459Z,960.13
2024-05-09T09:48:23.074Z,960.11
2024-05-09T09:49:22.436Z,960.14
2024-05-09T09:50:27.947Z,960.11
2024-05-09T09:51:22.364Z,960.06
2024-05-09T09:52:22.478Z,960.08
2024-05-09T09:53:22.345Z,960.05
2024-05-09T09:54:22.360Z,960.05
2024-05-09T09:55:22.513Z,960.04
2024-05-09T09:56:22.329Z,960.09
2024-05-09T09:57:22.363Z,960.04
2024-05-09T09:58:22.372Z,960.05
2024-05-09T09:59:22.271Z,960.06
2024-05-09T10:00:27.252Z,960.05
2024-05-09T10:01:22.380Z,960.09
2024-05-09T10:02:22.314Z,960.07
2024-05-09T10:03:22.361Z,960.08
2024-05-09T10:04:22.284Z,960.07
2024-05-09T10:05:22.472Z,960.07
2024-05-09T10:06:22.177Z,960.09
2024-05-09T10:07:22.209Z,960.11
2024-05-09T10:08:22.115Z,960.11
2024-05-09T10:09:22.102Z,960.09
2024-05-09T10:10:29.895Z,960.08
2024-05-09T10:11:22.303Z,960.08
2024-05-09T10:12:22.154Z,960.06
2024-05-09T10:13:22.259Z,960.08
2024-05-09T10:14:22.076Z,960.04
2024-05-09T10:15:22.041Z,960.01
2024-05-09T10:16:22.371Z,960.06
2024-05-09T10:17:22.077Z,960.03
2024-05-09T10:18:22.050Z,960.05
2024-05-09T10:19:22.030Z,960.02
2024-05-09T10:20:27.708Z,960.06
2024-05-09T10:21:22.026Z,960.05
2024-05-09T10:22:21.964Z,960.07
2024-05-09T10:23:21.950Z,960.05
2024-05-09T10:24:21.904Z,960.07
2024-05-09T10:25:22.245Z,960.04
2024-05-09T10:26:21.878Z,960.06
2024-05-09T10:27:21.921Z,960.05
2024-05-09T10:28:21.875Z,960.05
2024-05-09T10:29:21.834Z,960.07
2024-05-09T10:30:29.571Z,960.02
2024-05-09T10:31:21.893Z,959.97
2024-05-09T10:32:21.873Z,960.02
2024-05-09T10:33:21.899Z,960.01
2024-05-09T10:34:22.056Z,959.99
2024-05-09T10:35:21.745Z,959.99
2024-05-09T10:36:21.814Z,959.98
2024-05-09T10:37:21.888Z,959.94
2024-05-09T10:38:21.731Z,960.00
2024-05-09T10:39:21.713Z,959.99
2024-05-09T10:40:26.602Z,959.98
2024-05-09T10:41:21.691Z,959.93
2024-05-09T10:42:21.737Z,960.01
2024-05-09T10:43:21.721Z,959.98
2024-05-09T10:44:21.636Z,959.95
2024-05-09T10:45:21.614Z,959.95
2024-05-09T10:46:21.879Z,959.91
2024-05-09T10:47:21.645Z,959.95
2024-05-09T10:48:21.670Z,959.94
2024-05-09T10:49:21.748Z,959.89
2024-05-09T10:50:28.174Z,959.90
2024-05-09T10:51:21.554Z,959.88
2024-05-09T10:52:21.558Z,959.88
2024-05-09T10:53:21.544Z,959.84
2024-05-09T10:54:21.507Z,959.84
2024-05-09T10:55:21.993Z,959.83
2024-05-09T10:56:21.463Z,959.84
2024-05-09T10:57:21.462Z,959.80
2024-05-09T10:58:21.533Z,959.80
2024-05-09T10:59:21.425Z,959.79
2024-05-09T11:00:27.713Z,959.81
2024-05-09T11:01:21.455Z,959.83
2024-05-09T11:02:21.568Z,959.72
2024-05-09T11:03:21.534Z,959.75
2024-05-09T11:04:21.623Z,959.75
2024-05-09T11:05:21.547Z,959.70
2024-05-09T11:06:21.321Z,959.71
2024-05-09T11:07:21.556Z,959.72
2024-05-09T11:08:21.315Z,959.70
2024-05-09T11:09:21.304Z,959.68
2024-05-09T11:10:27.730Z,959.66
2024-05-09T11:11:21.274Z,959.66
2024-05-09T11:12:22.842Z,959.68
2024-05-09T11:13:21.994Z,959.68
2024-05-09T11:14:21.213Z,959.65
2024-05-09T11:15:21.244Z,959.60
2024-05-09T11:16:21.621Z,959.65
2024-05-09T11:17:21.444Z,959.64
2024-05-09T11:18:24.446Z,959.61
2024-05-09T11:19:21.365Z,959.65
2024-05-09T11:20:29.075Z,959.63
2024-05-09T11:21:21.123Z,959.68
2024-05-09T11:22:21.120Z,959.60
2024-05-09T11:23:21.112Z,959.58
2024-05-09T11:24:21.114Z,959.61
2024-05-09T11:25:21.119Z,959.61
2024-05-09T11:26:21.054Z,959.59
2024-05-09T11:27:21.058Z,959.63
2024-05-09T11:28:21.257Z,959.60
2024-05-09T11:29:21.047Z,959.59
2024-05-09T11:30:26.856Z,959.65
2024-05-09T11:31:21.386Z,959.51
2024-05-09T11:32:21.027Z,959.57
2024-05-09T11:33:21.007Z,959.58
2024-05-09T11:34:21.051Z,959.56
2024-05-09T11:35:20.966Z,959.55
2024-05-09T11:36:20.964Z,959.53
2024-05-09T11:37:21.036Z,959.50
2024-05-09T11:38:20.897Z,959.47
2024-05-09T11:39:20.883Z,959.48
2024-05-09T11:40:25.552Z,959.48
2024-05-09T11:41:20.851Z,959.47
2024-05-09T11:42:20.841Z,959.46
2024-05-09T11:43:21.151Z,959.48
2024-05-09T11:44:20.813Z,959.46
2024-05-09T11:45:20.882Z,959.40
2024-05-09T11:46:20.950Z,959.44
2024-05-09T11:47:20.863Z,959.48
2024-05-09T11:48:21.036Z,959.46
2024-05-09T11:49:22.510Z,959.43
2024-05-09T11:50:27.195Z,959.41
2024-05-09T11:51:20.710Z,959.39
2024-05-09T11:52:20.741Z,959.42
2024-05-09T11:53:20.705Z,959.39
2024-05-09T11:54:20.699Z,959.34
2024-05-09T11:55:22.048Z,959.38
2024-05-09T11:56:20.669Z,959.39
2024-05-09T11:57:20.644Z,959.43
2024-05-09T11:58:20.724Z,959.37
2024-05-09T11:59:20.621Z,959.37
2024-05-09T12:00:29.242Z,959.34
2024-05-09T12:01:21.350Z,959.33
2024-05-09T12:02:20.828Z,959.34
2024-05-09T12:03:20.572Z,959.34
2024-05-09T12:04:20.732Z,959.30
2024-05-09T12:05:20.925Z,959.28
2024-05-09T12:06:20.561Z,959.32
2024-05-09T12:07:20.549Z,959.17
2024-05-09T12:08:20.483Z,959.23
2024-05-09T12:09:20.467Z,959.22
2024-05-09T12:10:26.023Z,959.15
2024-05-09T12:11:20.518Z,959.19
2024-05-09T12:12:20.448Z,959.15
2024-05-09T12:13:20.630Z,959.22
2024-05-09T12:14:20.421Z,959.18
2024-05-09T12:15:20.416Z,959.18
2024-05-09T12:16:20.684Z,959.16
2024-05-09T12:17:20.477Z,959.18
2024-05-09T12:18:20.401Z,959.18
2024-05-09T12:19:20.416Z,959.15
2024-05-09T12:20:28.545Z,959.19
2024-05-09T12:21:20.406Z,959.17
2024-05-09T12:22:20.369Z,959.16
2024-05-09T12:23:20.286Z,959.16
2024-05-09T12:24:20.286Z,959.12
2024-05-09T12:25:20.319Z,959.14
2024-05-09T12:26:20.237Z,959.16
2024-05-09T12:27:20.316Z,959.19
2024-05-09T12:28:20.272Z,959.18
2024-05-09T12:29:20.246Z,959.19
2024-05-09T12:30:32.253Z,959.14
2024-05-09T12:31:20.258Z,959.13